Terminal Aerodrome Forecast
Issued by NWS

Home | Current Version | Previous Version | Text Only | Print | Product List | Glossary On
Versions: 1 2 3 4 5 6 7 8 9 10 11 12 13 14
000
FTUS45 KBOI 211125
TAFJER
TAF
KJER 211125Z 2112/2212 10008KT P6SM SCT200
     FM212100 10010KT P6SM BKN120
     FM220300 14008KT P6SM OVC120=

USA.gov is the U.S. government's official web portal to all federal, state and local government web resources and services.